Baker, Oklahoma
Current Conditions -  °F | °C
As of 7:15 AM on Thursday 18 Dec 2014 (Local Time) from KLBL Reporting Station
Overcast Overcast  
Wind Chill: 27°   Ceiling: 300
Heat Index: 32°   Visibility: 4mi
Dew Point: 28°   Wind: 5mph
Humidity: 87%   Direction: 70°ENE
Pressure: 30.1"   Gusts: NA
Location:  36.8748°N, 100.837°W
Report Text: KLBL 181315Z AUTO 07004KT 4SM OVC003 00/M02 A3010 RMK AO1
Loading
Personal Weather Stations






























Interactive Weather Map New forecast layout! Learn more

10-Day Weather Forecast

Advertisements
Track Severe Weather on mobile